sensor_id;sensor_type;location;lat;lon;timestamp;temperature;humidity
20610;DHT22;10463;52.378;9.688;2022-08-20T00:01:42;28.60;30.60
20610;DHT22;10463;52.378;9.688;2022-08-20T00:04:27;28.60;30.00
20610;DHT22;10463;52.378;9.688;2022-08-20T00:07:12;28.60;30.00
20610;DHT22;10463;52.378;9.688;2022-08-20T00:09:59;28.50;30.00
20610;DHT22;10463;52.378;9.688;2022-08-20T00:12:46;28.50;30.10
20610;DHT22;10463;52.378;9.688;2022-08-20T00:15:34;28.40;30.10
20610;DHT22;10463;52.378;9.688;2022-08-20T00:18:20;28.40;30.20
20610;DHT22;10463;52.378;9.688;2022-08-20T00:21:10;28.40;30.20
20610;DHT22;10463;52.378;9.688;2022-08-20T00:23:56;28.30;30.30
20610;DHT22;10463;52.378;9.688;2022-08-20T00:26:42;28.30;30.30
20610;DHT22;10463;52.378;9.688;2022-08-20T00:29:27;28.30;30.30
20610;DHT22;10463;52.378;9.688;2022-08-20T00:32:12;28.30;30.40
20610;DHT22;10463;52.378;9.688;2022-08-20T00:34:57;28.30;30.40
20610;DHT22;10463;52.378;9.688;2022-08-20T00:37:42;28.20;30.50
20610;DHT22;10463;52.378;9.688;2022-08-20T00:40:31;28.20;30.50
20610;DHT22;10463;52.378;9.688;2022-08-20T00:43:34;28.20;30.60
20610;DHT22;10463;52.378;9.688;2022-08-20T00:46:23;28.20;30.70
20610;DHT22;10463;52.378;9.688;2022-08-20T00:49:14;28.20;30.60
20610;DHT22;10463;52.378;9.688;2022-08-20T00:52:06;28.20;30.50
20610;DHT22;10463;52.378;9.688;2022-08-20T00:54:55;28.20;30.20
20610;DHT22;10463;52.378;9.688;2022-08-20T00:57:46;28.10;29.90
20610;DHT22;10463;52.378;9.688;2022-08-20T01:00:37;28.10;29.90
20610;DHT22;10463;52.378;9.688;2022-08-20T01:03:23;28.00;29.80
20610;DHT22;10463;52.378;9.688;2022-08-20T01:06:08;27.90;29.80
20610;DHT22;10463;52.378;9.688;2022-08-20T01:08:55;27.80;29.80
20610;DHT22;10463;52.378;9.688;2022-08-20T01:11:40;27.80;29.90
20610;DHT22;10463;52.378;9.688;2022-08-20T01:14:25;27.70;29.80
20610;DHT22;10463;52.378;9.688;2022-08-20T01:17:24;27.60;29.80
20610;DHT22;10463;52.378;9.688;2022-08-20T01:20:16;27.50;29.90
20610;DHT22;10463;52.378;9.688;2022-08-20T01:23:12;27.50;30.00
20610;DHT22;10463;52.378;9.688;2022-08-20T01:26:16;27.50;30.20
20610;DHT22;10463;52.378;9.688;2022-08-20T01:29:08;27.50;30.20
20610;DHT22;10463;52.378;9.688;2022-08-20T01:31:54;27.50;30.30
20610;DHT22;10463;52.378;9.688;2022-08-20T01:34:44;27.60;30.40
20610;DHT22;10463;52.378;9.688;2022-08-20T01:37:29;27.60;30.40
20610;DHT22;10463;52.378;9.688;2022-08-20T01:40:18;27.60;30.40
20610;DHT22;10463;52.378;9.688;2022-08-20T01:43:08;27.70;30.50
20610;DHT22;10463;52.378;9.688;2022-08-20T01:45:54;27.70;30.40
20610;DHT22;10463;52.378;9.688;2022-08-20T01:48:43;27.70;30.30
20610;DHT22;10463;52.378;9.688;2022-08-20T01:51:29;27.80;30.30
20610;DHT22;10463;52.378;9.688;2022-08-20T01:54:14;27.80;30.20
20610;DHT22;10463;52.378;9.688;2022-08-20T01:57:04;27.80;30.20
20610;DHT22;10463;52.378;9.688;2022-08-20T01:59:51;27.80;30.10
20610;DHT22;10463;52.378;9.688;2022-08-20T02:02:36;27.80;30.10
20610;DHT22;10463;52.378;9.688;2022-08-20T02:05:21;27.90;30.20
20610;DHT22;10463;52.378;9.688;2022-08-20T02:08:06;27.90;30.20
20610;DHT22;10463;52.378;9.688;2022-08-20T02:10:52;27.90;30.20
20610;DHT22;10463;52.378;9.688;2022-08-20T02:13:37;28.00;30.20
20610;DHT22;10463;52.378;9.688;2022-08-20T02:16:29;28.00;30.20
20610;DHT22;10463;52.378;9.688;2022-08-20T02:19:19;28.00;30.20
20610;DHT22;10463;52.378;9.688;2022-08-20T02:22:26;28.00;30.10
20610;DHT22;10463;52.378;9.688;2022-08-20T02:25:14;28.10;30.20
20610;DHT22;10463;52.378;9.688;2022-08-20T02:28:02;28.10;30.20
20610;DHT22;10463;52.378;9.688;2022-08-20T02:30:51;28.10;30.20
20610;DHT22;10463;52.378;9.688;2022-08-20T02:33:38;28.20;30.30
20610;DHT22;10463;52.378;9.688;2022-08-20T02:36:23;28.20;30.20
20610;DHT22;10463;52.378;9.688;2022-08-20T02:39:12;28.30;30.30
20610;DHT22;10463;52.378;9.688;2022-08-20T02:41:57;28.30;30.20
20610;DHT22;10463;52.378;9.688;2022-08-20T02:44:41;28.30;30.20
20610;DHT22;10463;52.378;9.688;2022-08-20T02:47:26;28.30;30.20
20610;DHT22;10463;52.378;9.688;2022-08-20T02:50:16;28.40;30.20
20610;DHT22;10463;52.378;9.688;2022-08-20T02:53:01;28.40;30.20
20610;DHT22;10463;52.378;9.688;2022-08-20T02:55:46;28.40;30.20
20610;DHT22;10463;52.378;9.688;2022-08-20T02:58:31;28.40;30.10
20610;DHT22;10463;52.378;9.688;2022-08-20T03:01:17;28.40;30.10
20610;DHT22;10463;52.378;9.688;2022-08-20T03:04:03;28.40;30.00
20610;DHT22;10463;52.378;9.688;2022-08-20T03:06:49;28.50;30.00
20610;DHT22;10463;52.378;9.688;2022-08-20T03:09:35;28.40;30.00
20610;DHT22;10463;52.378;9.688;2022-08-20T03:12:20;28.40;30.00
20610;DHT22;10463;52.378;9.688;2022-08-20T03:15:06;28.40;30.00
20610;DHT22;10463;52.378;9.688;2022-08-20T03:17:52;28.40;30.00
20610;DHT22;10463;52.378;9.688;2022-08-20T03:20:37;28.40;30.00
20610;DHT22;10463;52.378;9.688;2022-08-20T03:23:24;28.40;30.00
20610;DHT22;10463;52.378;9.688;2022-08-20T03:26:12;28.40;29.90
20610;DHT22;10463;52.378;9.688;2022-08-20T03:28:57;28.30;29.90
20610;DHT22;10463;52.378;9.688;2022-08-20T03:31:41;28.30;30.00
20610;DHT22;10463;52.378;9.688;2022-08-20T03:34:26;28.30;30.60
20610;DHT22;10463;52.378;9.688;2022-08-20T03:37:10;28.30;30.00
20610;DHT22;10463;52.378;9.688;2022-08-20T03:39:57;28.30;30.00
20610;DHT22;10463;52.378;9.688;2022-08-20T03:42:43;28.30;30.00
20610;DHT22;10463;52.378;9.688;2022-08-20T03:45:28;28.40;30.10
20610;DHT22;10463;52.378;9.688;2022-08-20T03:48:18;28.40;30.10
20610;DHT22;10463;52.378;9.688;2022-08-20T03:51:04;28.40;30.20
20610;DHT22;10463;52.378;9.688;2022-08-20T03:53:49;28.40;30.10
20610;DHT22;10463;52.378;9.688;2022-08-20T03:56:35;28.50;30.20
20610;DHT22;10463;52.378;9.688;2022-08-20T03:59:20;28.50;30.10
20610;DHT22;10463;52.378;9.688;2022-08-20T04:02:05;28.50;30.10
20610;DHT22;10463;52.378;9.688;2022-08-20T04:04:50;28.50;30.10
20610;DHT22;10463;52.378;9.688;2022-08-20T04:07:35;28.50;30.10
20610;DHT22;10463;52.378;9.688;2022-08-20T04:10:21;28.60;30.20
20610;DHT22;10463;52.378;9.688;2022-08-20T04:13:08;28.60;30.20
20610;DHT22;10463;52.378;9.688;2022-08-20T04:15:53;28.60;30.10
20610;DHT22;10463;52.378;9.688;2022-08-20T04:18:40;28.60;30.10
20610;DHT22;10463;52.378;9.688;2022-08-20T04:21:25;28.60;30.10
20610;DHT22;10463;52.378;9.688;2022-08-20T04:24:10;28.60;30.10
20610;DHT22;10463;52.378;9.688;2022-08-20T04:26:56;28.60;30.10
20610;DHT22;10463;52.378;9.688;2022-08-20T04:29:43;28.60;30.10
20610;DHT22;10463;52.378;9.688;2022-08-20T04:32:29;28.70;30.10
20610;DHT22;10463;52.378;9.688;2022-08-20T04:35:14;28.70;30.10
20610;DHT22;10463;52.378;9.688;2022-08-20T04:38:04;28.70;30.20
20610;DHT22;10463;52.378;9.688;2022-08-20T04:40:50;28.70;30.20
20610;DHT22;10463;52.378;9.688;2022-08-20T04:43:41;28.70;30.10
20610;DHT22;10463;52.378;9.688;2022-08-20T04:46:27;28.70;30.20
20610;DHT22;10463;52.378;9.688;2022-08-20T04:49:12;28.70;30.20
20610;DHT22;10463;52.378;9.688;2022-08-20T04:51:57;28.80;30.30
20610;DHT22;10463;52.378;9.688;2022-08-20T04:54:43;28.70;30.30
20610;DHT22;10463;52.378;9.688;2022-08-20T04:57:28;28.70;30.40
20610;DHT22;10463;52.378;9.688;2022-08-20T05:00:16;28.70;30.40
20610;DHT22;10463;52.378;9.688;2022-08-20T05:03:02;28.70;30.50
20610;DHT22;10463;52.378;9.688;2022-08-20T05:05:48;28.70;30.50
20610;DHT22;10463;52.378;9.688;2022-08-20T05:08:34;28.70;31.30
20610;DHT22;10463;52.378;9.688;2022-08-20T05:11:20;28.70;31.00
20610;DHT22;10463;52.378;9.688;2022-08-20T05:14:07;28.70;31.10
20610;DHT22;10463;52.378;9.688;2022-08-20T05:16:52;28.70;31.20
20610;DHT22;10463;52.378;9.688;2022-08-20T05:19:42;28.70;31.30
20610;DHT22;10463;52.378;9.688;2022-08-20T05:22:27;28.70;31.40
20610;DHT22;10463;52.378;9.688;2022-08-20T05:25:12;28.70;31.50
20610;DHT22;10463;52.378;9.688;2022-08-20T05:27:58;28.70;31.90
20610;DHT22;10463;52.378;9.688;2022-08-20T05:30:47;28.70;32.30
20610;DHT22;10463;52.378;9.688;2022-08-20T05:33:32;28.60;32.50
20610;DHT22;10463;52.378;9.688;2022-08-20T05:36:18;28.60;32.50
20610;DHT22;10463;52.378;9.688;2022-08-20T05:39:05;28.60;32.70
20610;DHT22;10463;52.378;9.688;2022-08-20T05:41:50;28.50;33.00
20610;DHT22;10463;52.378;9.688;2022-08-20T05:44:34;28.50;33.10
20610;DHT22;10463;52.378;9.688;2022-08-20T05:47:21;28.50;33.30
20610;DHT22;10463;52.378;9.688;2022-08-20T05:50:13;28.40;33.40
20610;DHT22;10463;52.378;9.688;2022-08-20T05:52:59;28.40;33.40
20610;DHT22;10463;52.378;9.688;2022-08-20T05:55:45;28.40;33.50
20610;DHT22;10463;52.378;9.688;2022-08-20T05:58:30;28.30;34.20
20610;DHT22;10463;52.378;9.688;2022-08-20T06:01:16;28.30;33.60
20610;DHT22;10463;52.378;9.688;2022-08-20T06:04:02;28.30;33.80
20610;DHT22;10463;52.378;9.688;2022-08-20T06:07:06;28.20;33.70
20610;DHT22;10463;52.378;9.688;2022-08-20T06:09:52;28.20;33.60
20610;DHT22;10463;52.378;9.688;2022-08-20T06:12:37;28.20;33.80
20610;DHT22;10463;52.378;9.688;2022-08-20T06:15:22;28.30;33.90
20610;DHT22;10463;52.378;9.688;2022-08-20T06:18:08;28.20;33.70
20610;DHT22;10463;52.378;9.688;2022-08-20T06:20:53;28.20;33.60
20610;DHT22;10463;52.378;9.688;2022-08-20T06:23:38;28.30;33.50
20610;DHT22;10463;52.378;9.688;2022-08-20T06:26:24;28.30;33.50
20610;DHT22;10463;52.378;9.688;2022-08-20T06:29:09;28.30;33.50
20610;DHT22;10463;52.378;9.688;2022-08-20T06:31:54;28.40;33.60
20610;DHT22;10463;52.378;9.688;2022-08-20T06:34:39;28.40;33.80
20610;DHT22;10463;52.378;9.688;2022-08-20T06:37:27;28.40;33.80
20610;DHT22;10463;52.378;9.688;2022-08-20T06:40:16;28.40;33.80
20610;DHT22;10463;52.378;9.688;2022-08-20T06:43:02;28.40;33.70
20610;DHT22;10463;52.378;9.688;2022-08-20T06:45:48;28.50;33.90
20610;DHT22;10463;52.378;9.688;2022-08-20T06:48:33;28.40;33.80
20610;DHT22;10463;52.378;9.688;2022-08-20T06:51:18;28.50;33.90
20610;DHT22;10463;52.378;9.688;2022-08-20T06:54:04;28.50;34.60
20610;DHT22;10463;52.378;9.688;2022-08-20T06:56:49;28.60;33.90
20610;DHT22;10463;52.378;9.688;2022-08-20T06:59:37;28.60;33.80
20610;DHT22;10463;52.378;9.688;2022-08-20T07:02:22;28.60;33.90
20610;DHT22;10463;52.378;9.688;2022-08-20T07:05:09;28.60;33.90
20610;DHT22;10463;52.378;9.688;2022-08-20T07:07:54;28.60;34.50
20610;DHT22;10463;52.378;9.688;2022-08-20T07:10:40;28.70;34.00
20610;DHT22;10463;52.378;9.688;2022-08-20T07:13:27;28.70;34.20
20610;DHT22;10463;52.378;9.688;2022-08-20T07:16:13;28.70;34.40
20610;DHT22;10463;52.378;9.688;2022-08-20T07:18:58;28.70;34.70
20610;DHT22;10463;52.378;9.688;2022-08-20T07:21:42;28.70;34.70
20610;DHT22;10463;52.378;9.688;2022-08-20T07:24:27;28.70;34.60
20610;DHT22;10463;52.378;9.688;2022-08-20T07:27:11;28.70;34.60
20610;DHT22;10463;52.378;9.688;2022-08-20T07:29:56;28.70;34.60
20610;DHT22;10463;52.378;9.688;2022-08-20T07:33:01;28.70;34.60
20610;DHT22;10463;52.378;9.688;2022-08-20T07:35:46;28.70;34.60
20610;DHT22;10463;52.378;9.688;2022-08-20T07:38:33;28.80;34.60
20610;DHT22;10463;52.378;9.688;2022-08-20T07:41:19;28.80;34.50
20610;DHT22;10463;52.378;9.688;2022-08-20T07:44:04;28.80;34.50
20610;DHT22;10463;52.378;9.688;2022-08-20T07:46:49;28.80;34.40
20610;DHT22;10463;52.378;9.688;2022-08-20T07:49:38;28.90;34.50
20610;DHT22;10463;52.378;9.688;2022-08-20T07:52:23;28.90;34.50
20610;DHT22;10463;52.378;9.688;2022-08-20T07:55:10;28.90;34.50
20610;DHT22;10463;52.378;9.688;2022-08-20T07:57:58;28.90;34.60
20610;DHT22;10463;52.378;9.688;2022-08-20T08:00:50;28.90;34.50
20610;DHT22;10463;52.378;9.688;2022-08-20T08:03:35;28.90;34.40
20610;DHT22;10463;52.378;9.688;2022-08-20T08:06:23;28.90;34.40
20610;DHT22;10463;52.378;9.688;2022-08-20T08:09:11;28.90;34.30
20610;DHT22;10463;52.378;9.688;2022-08-20T08:11:57;28.90;34.30
20610;DHT22;10463;52.378;9.688;2022-08-20T08:14:45;28.90;34.40
20610;DHT22;10463;52.378;9.688;2022-08-20T08:17:32;28.90;34.30
20610;DHT22;10463;52.378;9.688;2022-08-20T08:20:18;28.90;34.30
20610;DHT22;10463;52.378;9.688;2022-08-20T08:23:05;28.90;34.30
20610;DHT22;10463;52.378;9.688;2022-08-20T08:25:51;28.90;34.30
20610;DHT22;10463;52.378;9.688;2022-08-20T08:28:36;28.90;34.30
20610;DHT22;10463;52.378;9.688;2022-08-20T08:31:21;28.90;34.30
20610;DHT22;10463;52.378;9.688;2022-08-20T08:34:06;29.00;34.40
20610;DHT22;10463;52.378;9.688;2022-08-20T08:36:51;29.00;34.50
20610;DHT22;10463;52.378;9.688;2022-08-20T08:39:37;29.00;34.50
20610;DHT22;10463;52.378;9.688;2022-08-20T08:42:28;29.00;34.50
20610;DHT22;10463;52.378;9.688;2022-08-20T08:45:18;29.00;34.50
20610;DHT22;10463;52.378;9.688;2022-08-20T08:48:04;29.00;34.50
20610;DHT22;10463;52.378;9.688;2022-08-20T08:50:52;29.00;34.50
20610;DHT22;10463;52.378;9.688;2022-08-20T08:53:40;29.00;34.40
20610;DHT22;10463;52.378;9.688;2022-08-20T08:56:30;29.00;34.40
20610;DHT22;10463;52.378;9.688;2022-08-20T08:59:15;29.00;34.30
20610;DHT22;10463;52.378;9.688;2022-08-20T09:02:01;29.10;34.30
20610;DHT22;10463;52.378;9.688;2022-08-20T09:04:46;29.10;34.20
20610;DHT22;10463;52.378;9.688;2022-08-20T09:07:32;29.10;34.10
20610;DHT22;10463;52.378;9.688;2022-08-20T09:10:17;29.10;34.10
20610;DHT22;10463;52.378;9.688;2022-08-20T09:13:04;29.10;34.00
20610;DHT22;10463;52.378;9.688;2022-08-20T09:15:49;29.10;34.00
20610;DHT22;10463;52.378;9.688;2022-08-20T09:18:34;29.10;34.00
20610;DHT22;10463;52.378;9.688;2022-08-20T09:21:18;29.20;34.00
20610;DHT22;10463;52.378;9.688;2022-08-20T09:24:04;29.20;33.90
20610;DHT22;10463;52.378;9.688;2022-08-20T09:26:49;29.20;33.90
20610;DHT22;10463;52.378;9.688;2022-08-20T09:29:36;29.20;33.90
20610;DHT22;10463;52.378;9.688;2022-08-20T09:32:23;29.20;33.90
20610;DHT22;10463;52.378;9.688;2022-08-20T09:35:10;29.20;33.90
20610;DHT22;10463;52.378;9.688;2022-08-20T09:37:55;29.20;34.00
20610;DHT22;10463;52.378;9.688;2022-08-20T09:40:40;29.20;33.90
20610;DHT22;10463;52.378;9.688;2022-08-20T09:43:24;29.20;34.00
20610;DHT22;10463;52.378;9.688;2022-08-20T09:46:10;29.20;34.00
20610;DHT22;10463;52.378;9.688;2022-08-20T09:48:55;29.20;33.90
20610;DHT22;10463;52.378;9.688;2022-08-20T09:51:40;29.20;33.90
20610;DHT22;10463;52.378;9.688;2022-08-20T09:54:25;29.20;33.90
20610;DHT22;10463;52.378;9.688;2022-08-20T09:57:14;29.20;33.90
20610;DHT22;10463;52.378;9.688;2022-08-20T10:00:05;29.30;33.90
20610;DHT22;10463;52.378;9.688;2022-08-20T10:02:58;29.30;34.00
20610;DHT22;10463;52.378;9.688;2022-08-20T10:05:45;29.30;33.90
20610;DHT22;10463;52.378;9.688;2022-08-20T10:08:30;29.30;33.80
20610;DHT22;10463;52.378;9.688;2022-08-20T10:11:15;29.30;33.90
20610;DHT22;10463;52.378;9.688;2022-08-20T10:14:00;29.30;33.80
20610;DHT22;10463;52.378;9.688;2022-08-20T10:16:45;29.30;33.80
20610;DHT22;10463;52.378;9.688;2022-08-20T10:19:31;29.30;33.80
20610;DHT22;10463;52.378;9.688;2022-08-20T10:22:16;29.40;33.90
20610;DHT22;10463;52.378;9.688;2022-08-20T10:25:01;29.40;33.90
20610;DHT22;10463;52.378;9.688;2022-08-20T10:27:46;29.40;33.90
20610;DHT22;10463;52.378;9.688;2022-08-20T10:30:31;29.40;33.90
20610;DHT22;10463;52.378;9.688;2022-08-20T10:33:16;29.40;34.00
20610;DHT22;10463;52.378;9.688;2022-08-20T10:36:07;29.40;34.70
20610;DHT22;10463;52.378;9.688;2022-08-20T10:38:52;29.40;34.00
20610;DHT22;10463;52.378;9.688;2022-08-20T10:41:37;29.40;34.00
20610;DHT22;10463;52.378;9.688;2022-08-20T10:44:21;29.40;34.00
20610;DHT22;10463;52.378;9.688;2022-08-20T10:47:19;29.40;34.00
20610;DHT22;10463;52.378;9.688;2022-08-20T10:50:09;29.40;34.40
20610;DHT22;10463;52.378;9.688;2022-08-20T10:52:55;29.40;34.60
20610;DHT22;10463;52.378;9.688;2022-08-20T10:55:40;29.40;34.70
20610;DHT22;10463;52.378;9.688;2022-08-20T10:58:25;29.40;35.00
20610;DHT22;10463;52.378;9.688;2022-08-20T11:01:10;29.40;35.20
20610;DHT22;10463;52.378;9.688;2022-08-20T11:03:55;29.40;35.30
20610;DHT22;10463;52.378;9.688;2022-08-20T11:06:40;29.40;35.30
20610;DHT22;10463;52.378;9.688;2022-08-20T11:09:28;29.40;35.50
20610;DHT22;10463;52.378;9.688;2022-08-20T11:12:13;29.40;35.70
20610;DHT22;10463;52.378;9.688;2022-08-20T11:14:58;29.40;35.90
20610;DHT22;10463;52.378;9.688;2022-08-20T11:17:43;29.40;35.90
20610;DHT22;10463;52.378;9.688;2022-08-20T11:20:28;29.40;36.00
20610;DHT22;10463;52.378;9.688;2022-08-20T11:23:15;29.30;36.10
20610;DHT22;10463;52.378;9.688;2022-08-20T11:26:00;29.30;36.10
20610;DHT22;10463;52.378;9.688;2022-08-20T11:28:45;29.30;36.30
20610;DHT22;10463;52.378;9.688;2022-08-20T11:31:30;29.30;36.70
20610;DHT22;10463;52.378;9.688;2022-08-20T11:34:15;29.30;37.00
20610;DHT22;10463;52.378;9.688;2022-08-20T11:37:00;29.30;37.30
20610;DHT22;10463;52.378;9.688;2022-08-20T11:39:45;29.30;37.30
20610;DHT22;10463;52.378;9.688;2022-08-20T11:42:31;29.20;37.60
20610;DHT22;10463;52.378;9.688;2022-08-20T11:45:15;29.20;37.90
20610;DHT22;10463;52.378;9.688;2022-08-20T11:48:00;29.20;38.10
20610;DHT22;10463;52.378;9.688;2022-08-20T11:50:45;29.20;38.20
20610;DHT22;10463;52.378;9.688;2022-08-20T11:53:30;29.20;38.00
20610;DHT22;10463;52.378;9.688;2022-08-20T11:56:15;29.20;37.80
20610;DHT22;10463;52.378;9.688;2022-08-20T11:59:01;29.20;37.60
20610;DHT22;10463;52.378;9.688;2022-08-20T12:01:46;29.20;37.60
20610;DHT22;10463;52.378;9.688;2022-08-20T12:04:31;29.20;37.40
20610;DHT22;10463;52.378;9.688;2022-08-20T12:07:18;29.20;37.30
20610;DHT22;10463;52.378;9.688;2022-08-20T12:10:04;29.20;37.20
20610;DHT22;10463;52.378;9.688;2022-08-20T12:12:49;29.20;37.10
20610;DHT22;10463;52.378;9.688;2022-08-20T12:15:36;29.30;37.10
20610;DHT22;10463;52.378;9.688;2022-08-20T12:18:21;29.20;36.80
20610;DHT22;10463;52.378;9.688;2022-08-20T12:21:06;29.30;36.80
20610;DHT22;10463;52.378;9.688;2022-08-20T12:23:51;29.30;36.70
20610;DHT22;10463;52.378;9.688;2022-08-20T12:26:36;29.30;36.70
20610;DHT22;10463;52.378;9.688;2022-08-20T12:29:20;29.30;36.70
20610;DHT22;10463;52.378;9.688;2022-08-20T12:32:07;29.30;36.70
20610;DHT22;10463;52.378;9.688;2022-08-20T12:34:52;29.30;36.60
20610;DHT22;10463;52.378;9.688;2022-08-20T12:37:38;29.30;36.50
20610;DHT22;10463;52.378;9.688;2022-08-20T12:40:26;29.30;36.40
20610;DHT22;10463;52.378;9.688;2022-08-20T12:43:11;29.30;36.30
20610;DHT22;10463;52.378;9.688;2022-08-20T12:45:56;29.40;36.40
20610;DHT22;10463;52.378;9.688;2022-08-20T12:48:42;29.40;36.30
20610;DHT22;10463;52.378;9.688;2022-08-20T12:51:27;29.40;36.30
20610;DHT22;10463;52.378;9.688;2022-08-20T12:54:12;29.40;36.10
20610;DHT22;10463;52.378;9.688;2022-08-20T12:56:56;29.40;36.10
20610;DHT22;10463;52.378;9.688;2022-08-20T12:59:41;29.40;36.10
20610;DHT22;10463;52.378;9.688;2022-08-20T13:02:26;29.50;36.80
20610;DHT22;10463;52.378;9.688;2022-08-20T13:05:13;29.40;36.10
20610;DHT22;10463;52.378;9.688;2022-08-20T13:07:59;29.40;36.10
20610;DHT22;10463;52.378;9.688;2022-08-20T13:10:44;29.40;36.00
20610;DHT22;10463;52.378;9.688;2022-08-20T13:13:29;29.50;35.90
20610;DHT22;10463;52.378;9.688;2022-08-20T13:16:15;29.50;35.80
20610;DHT22;10463;52.378;9.688;2022-08-20T13:19:00;29.50;35.70
20610;DHT22;10463;52.378;9.688;2022-08-20T13:21:46;29.50;35.60
20610;DHT22;10463;52.378;9.688;2022-08-20T13:24:31;29.50;35.40
20610;DHT22;10463;52.378;9.688;2022-08-20T13:27:18;29.50;35.30
20610;DHT22;10463;52.378;9.688;2022-08-20T13:30:06;29.50;35.20
20610;DHT22;10463;52.378;9.688;2022-08-20T13:32:52;29.50;35.10
20610;DHT22;10463;52.378;9.688;2022-08-20T13:35:37;29.50;35.00
20610;DHT22;10463;52.378;9.688;2022-08-20T13:38:23;29.50;35.10
20610;DHT22;10463;52.378;9.688;2022-08-20T13:41:08;29.50;35.00
20610;DHT22;10463;52.378;9.688;2022-08-20T13:43:53;29.50;35.00
20610;DHT22;10463;52.378;9.688;2022-08-20T13:46:37;29.50;35.00
20610;DHT22;10463;52.378;9.688;2022-08-20T13:49:22;29.50;35.00
20610;DHT22;10463;52.378;9.688;2022-08-20T13:52:07;29.50;34.90
20610;DHT22;10463;52.378;9.688;2022-08-20T13:54:54;29.50;34.90
20610;DHT22;10463;52.378;9.688;2022-08-20T13:57:39;29.50;34.90
20610;DHT22;10463;52.378;9.688;2022-08-20T14:00:27;29.50;34.90
20610;DHT22;10463;52.378;9.688;2022-08-20T14:03:13;29.50;34.80
20610;DHT22;10463;52.378;9.688;2022-08-20T14:06:00;29.50;34.70
20610;DHT22;10463;52.378;9.688;2022-08-20T14:08:44;29.50;34.70
20610;DHT22;10463;52.378;9.688;2022-08-20T14:11:30;29.50;34.60
20610;DHT22;10463;52.378;9.688;2022-08-20T14:14:15;29.50;34.60
20610;DHT22;10463;52.378;9.688;2022-08-20T14:17:13;29.50;34.50
20610;DHT22;10463;52.378;9.688;2022-08-20T14:20:03;29.50;34.50
20610;DHT22;10463;52.378;9.688;2022-08-20T14:22:48;29.50;34.30
20610;DHT22;10463;52.378;9.688;2022-08-20T14:25:34;29.50;34.30
20610;DHT22;10463;52.378;9.688;2022-08-20T14:28:23;29.50;34.20
20610;DHT22;10463;52.378;9.688;2022-08-20T14:31:11;29.50;34.10
20610;DHT22;10463;52.378;9.688;2022-08-20T14:33:55;29.50;33.90
20610;DHT22;10463;52.378;9.688;2022-08-20T14:36:40;29.50;33.90
20610;DHT22;10463;52.378;9.688;2022-08-20T14:39:25;29.50;33.80
20610;DHT22;10463;52.378;9.688;2022-08-20T14:42:10;29.50;33.70
20610;DHT22;10463;52.378;9.688;2022-08-20T14:44:57;29.50;33.70
20610;DHT22;10463;52.378;9.688;2022-08-20T14:47:45;29.60;33.70
20610;DHT22;10463;52.378;9.688;2022-08-20T14:50:33;29.60;33.60
20610;DHT22;10463;52.378;9.688;2022-08-20T14:53:18;29.60;33.50
20610;DHT22;10463;52.378;9.688;2022-08-20T14:56:04;29.60;33.40
20610;DHT22;10463;52.378;9.688;2022-08-20T14:58:49;29.60;33.40
20610;DHT22;10463;52.378;9.688;2022-08-20T15:01:36;29.60;33.50
20610;DHT22;10463;52.378;9.688;2022-08-20T15:04:20;29.60;33.50
20610;DHT22;10463;52.378;9.688;2022-08-20T15:07:12;29.60;33.50
20610;DHT22;10463;52.378;9.688;2022-08-20T15:09:58;29.70;33.60
20610;DHT22;10463;52.378;9.688;2022-08-20T15:12:44;29.70;33.20
20610;DHT22;10463;52.378;9.688;2022-08-20T15:15:29;29.70;33.20
20610;DHT22;10463;52.378;9.688;2022-08-20T15:18:15;29.70;33.20
20610;DHT22;10463;52.378;9.688;2022-08-20T15:21:00;29.70;33.20
20610;DHT22;10463;52.378;9.688;2022-08-20T15:23:45;29.70;33.20
20610;DHT22;10463;52.378;9.688;2022-08-20T15:26:32;29.70;33.20
20610;DHT22;10463;52.378;9.688;2022-08-20T15:29:17;29.70;33.20
20610;DHT22;10463;52.378;9.688;2022-08-20T15:32:02;29.70;33.30
20610;DHT22;10463;52.378;9.688;2022-08-20T15:34:49;29.70;33.20
20610;DHT22;10463;52.378;9.688;2022-08-20T15:37:38;29.70;33.20
20610;DHT22;10463;52.378;9.688;2022-08-20T15:40:26;29.70;33.30
20610;DHT22;10463;52.378;9.688;2022-08-20T15:43:11;29.70;33.20
20610;DHT22;10463;52.378;9.688;2022-08-20T15:45:57;29.70;33.20
20610;DHT22;10463;52.378;9.688;2022-08-20T15:48:46;29.70;33.20
20610;DHT22;10463;52.378;9.688;2022-08-20T15:51:38;29.70;33.30
20610;DHT22;10463;52.378;9.688;2022-08-20T15:54:26;29.70;33.30
20610;DHT22;10463;52.378;9.688;2022-08-20T15:57:14;29.70;33.40
20610;DHT22;10463;52.378;9.688;2022-08-20T16:00:14;29.70;33.40
20610;DHT22;10463;52.378;9.688;2022-08-20T16:03:35;29.70;33.50
20610;DHT22;10463;52.378;9.688;2022-08-20T16:06:25;29.70;33.40
20610;DHT22;10463;52.378;9.688;2022-08-20T16:09:31;29.80;33.40
20610;DHT22;10463;52.378;9.688;2022-08-20T16:12:26;29.80;33.30
20610;DHT22;10463;52.378;9.688;2022-08-20T16:15:21;29.80;33.30
20610;DHT22;10463;52.378;9.688;2022-08-20T16:18:23;29.80;33.30
20610;DHT22;10463;52.378;9.688;2022-08-20T16:21:12;29.80;33.30
20610;DHT22;10463;52.378;9.688;2022-08-20T16:23:58;29.80;32.80
20610;DHT22;10463;52.378;9.688;2022-08-20T16:27:06;29.80;32.50
20610;DHT22;10463;52.378;9.688;2022-08-20T16:29:57;29.80;32.30
20610;DHT22;10463;52.378;9.688;2022-08-20T16:32:47;29.80;32.10
20610;DHT22;10463;52.378;9.688;2022-08-20T16:35:36;29.80;32.00
20610;DHT22;10463;52.378;9.688;2022-08-20T16:38:37;29.80;32.00
20610;DHT22;10463;52.378;9.688;2022-08-20T16:41:27;29.80;31.80
20610;DHT22;10463;52.378;9.688;2022-08-20T16:44:23;29.80;31.80
20610;DHT22;10463;52.378;9.688;2022-08-20T16:47:16;29.80;31.70
20610;DHT22;10463;52.378;9.688;2022-08-20T16:50:06;29.80;31.70
20610;DHT22;10463;52.378;9.688;2022-08-20T16:52:52;29.80;31.60
20610;DHT22;10463;52.378;9.688;2022-08-20T16:55:36;29.70;31.50
20610;DHT22;10463;52.378;9.688;2022-08-20T16:58:21;29.70;31.50
20610;DHT22;10463;52.378;9.688;2022-08-20T17:01:12;29.80;31.40
20610;DHT22;10463;52.378;9.688;2022-08-20T17:03:57;29.70;31.30
20610;DHT22;10463;52.378;9.688;2022-08-20T17:06:46;29.80;31.40
20610;DHT22;10463;52.378;9.688;2022-08-20T17:09:37;29.70;31.30
20610;DHT22;10463;52.378;9.688;2022-08-20T17:12:27;29.70;31.20
20610;DHT22;10463;52.378;9.688;2022-08-20T17:15:21;29.70;31.10
20610;DHT22;10463;52.378;9.688;2022-08-20T17:18:20;29.70;31.10
20610;DHT22;10463;52.378;9.688;2022-08-20T17:21:14;29.70;31.10
20610;DHT22;10463;52.378;9.688;2022-08-20T17:24:02;29.70;31.00
20610;DHT22;10463;52.378;9.688;2022-08-20T17:26:50;29.70;31.00
20610;DHT22;10463;52.378;9.688;2022-08-20T17:29:50;29.70;31.60
20610;DHT22;10463;52.378;9.688;2022-08-20T17:32:50;29.70;30.90
20610;DHT22;10463;52.378;9.688;2022-08-20T17:35:42;29.70;30.70